Time;durP1;ratioP1;P1;durP2;ratioP2;P2;SDS_P1;SDS_P2;PMS_P1;PMS_P2;Temp;Humidity;BMP_temperature;BMP_pressure;BME280_temperature;BME280_humidity;BME280_pressure;Samples;Min_cycle;Max_cycle;Signal;HPM_P1;HPM_P2
2023/12/15 00:02:34;;;;;;;30.50;20.60;;;;;;;2.87;100.00;101035.73;177834;1258;44605;-82
2023/12/15 00:06:37;;;;;;;34.00;21.20;;;;;;;2.84;100.00;101034.95;178602;1256;46066;-84
2023/12/15 00:10:40;;;;;;;31.00;20.50;;;;;;;2.77;100.00;101044.14;178825;1257;58243;-83
2023/12/15 00:14:44;;;;;;;30.70;20.70;;;;;;;2.77;100.00;101050.81;178702;1256;45943;-83
2023/12/15 00:18:47;;;;;;;28.20;19.60;;;;;;;2.79;100.00;101056.90;177954;1257;46127;-83
2023/12/15 00:22:51;;;;;;;32.10;22.00;;;;;;;2.74;100.00;101061.10;177326;1256;46036;-83
2023/12/15 00:26:54;;;;;;;33.40;22.90;;;;;;;2.79;100.00;101067.94;178188;1257;45975;-83
2023/12/15 00:30:57;;;;;;;31.20;19.00;;;;;;;2.84;100.00;101078.40;178533;1256;57531;-82
2023/12/15 00:35:00;;;;;;;32.30;20.20;;;;;;;2.79;100.00;101086.82;178332;1258;46034;-83
2023/12/15 00:39:03;;;;;;;32.20;20.20;;;;;;;2.84;100.00;101091.55;178622;1259;46168;-83
2023/12/15 00:43:07;;;;;;;34.70;21.80;;;;;;;2.87;100.00;101094.06;178264;1256;46067;-83
2023/12/15 00:47:10;;;;;;;35.40;20.90;;;;;;;2.80;100.00;101101.14;179194;1256;46494;-84
2023/12/15 00:51:14;;;;;;;33.90;21.60;;;;;;;2.76;100.00;101099.37;178380;1259;59399;-83
2023/12/15 00:55:17;;;;;;;24.50;18.80;;;;;;;2.73;100.00;101113.84;178337;1256;46094;-81
2023/12/15 00:59:20;;;;;;;28.00;18.00;;;;;;;2.73;100.00;101121.88;177890;1260;46455;-83
2023/12/15 01:03:23;;;;;;;36.10;22.30;;;;;;;2.79;100.00;101132.55;178554;1258;44012;-83
2023/12/15 01:07:30;;;;;;;38.60;24.10;;;;;;;2.74;100.00;101140.26;178293;1258;45207;-84
2023/12/15 01:11:34;;;;;;;44.70;24.20;;;;;;;2.69;100.00;101151.98;177676;1261;58932;-83
2023/12/15 01:15:37;;;;;;;39.90;24.60;;;;;;;2.66;100.00;101159.97;178638;1258;46181;-83
2023/12/15 01:19:40;;;;;;;35.80;22.20;;;;;;;2.70;100.00;101169.09;177633;1261;46221;-83
2023/12/15 01:23:43;;;;;;;31.60;21.40;;;;;;;2.69;100.00;101175.96;178108;1256;46163;-83
2023/12/15 01:27:46;;;;;;;30.40;21.80;;;;;;;2.62;100.00;101189.16;178091;1256;46139;-83
2023/12/15 01:31:50;;;;;;;32.30;21.60;;;;;;;2.60;100.00;101192.56;178591;1257;58263;-83
2023/12/15 01:35:54;;;;;;;31.30;23.30;;;;;;;2.55;100.00;101199.21;178129;1258;44627;-83
2023/12/15 01:39:57;;;;;;;33.50;23.70;;;;;;;2.54;100.00;101208.88;178043;1256;46169;-83
2023/12/15 01:44:01;;;;;;;35.40;22.40;;;;;;;2.53;100.00;101206.62;178252;1259;46037;-84
2023/12/15 01:48:06;;;;;;;43.20;24.10;;;;;;;2.53;100.00;101200.50;178098;1258;46087;-83
2023/12/15 01:52:10;;;;;;;39.30;27.10;;;;;;;2.58;100.00;101208.06;179432;1259;57255;-84
2023/12/15 01:56:13;;;;;;;39.80;24.00;;;;;;;2.65;100.00;101213.43;179013;1258;46065;-84
2023/12/15 02:00:17;;;;;;;41.70;27.50;;;;;;;2.60;100.00;101213.08;180557;1256;43522;-82
2023/12/15 02:04:21;;;;;;;37.50;27.80;;;;;;;2.58;100.00;101222.09;179942;1256;46170;-84
2023/12/15 02:08:24;;;;;;;43.10;26.60;;;;;;;2.59;100.00;101228.34;178142;1260;46004;-85
2023/12/15 02:12:27;;;;;;;39.10;26.80;;;;;;;2.66;100.00;101229.13;178632;1256;60054;-85
2023/12/15 02:16:30;;;;;;;37.60;23.20;;;;;;;2.80;100.00;101230.09;178723;1258;46107;-84
2023/12/15 02:20:33;;;;;;;36.10;24.50;;;;;;;2.93;100.00;101224.20;178105;1256;46014;-84
2023/12/15 02:24:38;;;;;;;34.80;22.90;;;;;;;3.05;100.00;101225.57;178142;1257;46124;-84
2023/12/15 02:28:41;;;;;;;38.10;21.30;;;;;;;3.08;100.00;101224.90;178500;1256;44421;-84
2023/12/15 02:32:44;;;;;;;26.80;20.40;;;;;;;3.14;100.00;101224.02;178022;1257;59311;-85
2023/12/15 02:36:49;;;;;;;42.60;23.60;;;;;;;3.13;100.00;101228.94;177516;1258;46020;-84
2023/12/15 02:40:53;;;;;;;33.00;19.20;;;;;;;3.04;100.00;101234.00;178400;1260;46121;-84
2023/12/15 02:44:56;;;;;;;34.60;21.20;;;;;;;3.02;100.00;101235.81;178426;1257;44721;-84
2023/12/15 02:48:59;;;;;;;35.50;21.50;;;;;;;3.09;100.00;101232.94;178829;1259;44640;-85
2023/12/15 02:53:02;;;;;;;28.80;19.20;;;;;;;3.16;100.00;101232.87;179444;1257;57941;-84
2023/12/15 02:57:06;;;;;;;30.20;20.50;;;;;;;3.22;100.00;101228.10;177928;1256;46140;-84
2023/12/15 03:01:09;;;;;;;35.50;21.90;;;;;;;3.24;100.00;101235.02;179968;1260;46040;-83
2023/12/15 03:05:12;;;;;;;30.50;20.10;;;;;;;3.16;100.00;101251.65;178878;1259;46114;-84
2023/12/15 03:09:15;;;;;;;35.00;21.40;;;;;;;2.89;100.00;101262.38;178403;1261;46105;-84
2023/12/15 03:13:19;;;;;;;31.40;21.50;;;;;;;2.80;100.00;101263.38;178014;1259;57565;-84
2023/12/15 03:17:22;;;;;;;43.30;27.20;;;;;;;2.78;100.00;101269.23;178482;1257;46058;-84
2023/12/15 03:21:25;;;;;;;44.00;27.00;;;;;;;2.87;100.00;101274.56;178925;1259;43995;-83
2023/12/15 03:25:28;;;;;;;38.80;23.80;;;;;;;2.94;100.00;101277.45;178658;1261;46204;-83
2023/12/15 03:29:31;;;;;;;38.70;25.80;;;;;;;3.02;100.00;101283.67;178570;1257;45969;-84
2023/12/15 03:33:35;;;;;;;37.90;24.10;;;;;;;3.08;100.00;101288.38;178636;1256;57915;-85
2023/12/15 03:37:39;;;;;;;38.60;26.20;;;;;;;3.10;100.00;101290.41;178951;1257;44861;-84
2023/12/15 03:41:42;;;;;;;34.60;23.40;;;;;;;3.13;100.00;101295.38;177905;1259;46030;-84
2023/12/15 03:45:46;;;;;;;39.00;24.80;;;;;;;3.10;100.00;101301.62;178482;1259;46040;-84
2023/12/15 03:49:49;;;;;;;46.10;27.90;;;;;;;3.11;100.00;101307.37;178084;1258;46040;-84
2023/12/15 03:53:52;;;;;;;38.60;25.50;;;;;;;3.11;100.00;101314.55;178199;1259;58264;-83
2023/12/15 03:57:55;;;;;;;39.70;25.30;;;;;;;3.08;100.00;101316.77;177749;1261;46011;-83
2023/12/15 04:01:58;;;;;;;33.90;23.60;;;;;;;2.95;100.00;101317.16;178424;1257;46199;-85
2023/12/15 04:06:01;;;;;;;35.60;23.20;;;;;;;2.91;100.00;101319.79;178632;1256;46210;-81
2023/12/15 04:10:05;;;;;;;44.90;26.00;;;;;;;2.94;100.00;101325.46;178071;1259;45934;-83
2023/12/15 04:14:09;;;;;;;44.90;26.80;;;;;;;2.99;100.00;101330.57;178798;1257;59328;-83
2023/12/15 04:18:12;;;;;;;39.70;23.90;;;;;;;3.09;100.00;101338.11;178432;1261;46001;-86
2023/12/15 04:22:18;;;;;;;35.30;21.50;;;;;;;3.18;100.00;101345.88;178245;1256;46106;-86
2023/12/15 04:26:22;;;;;;;28.80;21.50;;;;;;;3.23;100.00;101357.45;178551;1258;44854;-86
2023/12/15 04:30:25;;;;;;;34.70;24.20;;;;;;;3.27;100.00;101364.50;178499;1257;46078;-85
2023/12/15 04:34:29;;;;;;;34.40;24.90;;;;;;;3.32;100.00;101370.83;178646;1256;59526;-86
2023/12/15 04:38:32;;;;;;;39.00;23.40;;;;;;;3.33;100.00;101376.40;178580;1256;46017;-85
2023/12/15 04:42:36;;;;;;;47.10;26.00;;;;;;;3.20;100.00;101385.94;177967;1258;46026;-85
2023/12/15 04:46:41;;;;;;;38.60;25.70;;;;;;;3.12;100.00;101389.73;177950;1260;46113;-84
2023/12/15 04:50:44;;;;;;;37.10;24.30;;;;;;;3.15;100.00;101392.24;177967;1260;45274;-85
2023/12/15 04:54:47;;;;;;;35.10;21.70;;;;;;;3.09;100.00;101396.48;178423;1257;58488;-85
2023/12/15 04:58:51;;;;;;;33.80;21.80;;;;;;;3.06;100.00;101402.20;178048;1259;46109;-84
2023/12/15 05:02:55;;;;;;;34.90;23.80;;;;;;;3.07;100.00;101403.55;177644;1257;46389;-85
2023/12/15 05:06:58;;;;;;;35.30;22.70;;;;;;;2.90;100.00;101403.21;178116;1260;46134;-85
2023/12/15 05:11:01;;;;;;;46.80;24.50;;;;;;;2.78;100.00;101405.70;178542;1256;44538;-85
2023/12/15 05:15:05;;;;;;;37.60;24.80;;;;;;;2.75;100.00;101410.52;178026;1262;59108;-85
2023/12/15 05:19:09;;;;;;;36.10;22.10;;;;;;;2.76;100.00;101412.77;177734;1258;46129;-86
2023/12/15 05:23:14;;;;;;;40.20;24.40;;;;;;;2.69;100.00;101421.02;178369;1258;46132;-86
2023/12/15 05:27:17;;;;;;;42.90;23.60;;;;;;;2.67;100.00;101428.11;178140;1258;44977;-85
2023/12/15 05:31:21;;;;;;;40.70;25.20;;;;;;;2.58;100.00;101434.34;178113;1257;45908;-83
2023/12/15 05:35:24;;;;;;;37.60;24.50;;;;;;;2.54;100.00;101443.19;180577;1257;58210;-83
2023/12/15 05:39:27;;;;;;;34.10;24.50;;;;;;;2.61;100.00;101446.48;179443;1258;46095;-85
2023/12/15 05:43:31;;;;;;;37.20;25.50;;;;;;;2.73;100.00;101445.60;177921;1260;47441;-86
2023/12/15 05:47:39;;;;;;;36.30;20.30;;;;;;;2.85;100.00;101442.27;178173;1261;46004;-85
2023/12/15 05:51:49;;;;;;;38.30;23.00;;;;;;;2.91;100.00;101445.23;178138;1257;46041;-85
2023/12/15 05:55:53;;;;;;;32.90;22.40;;;;;;;2.90;100.00;101450.71;177698;1260;59602;-86
2023/12/15 05:59:56;;;;;;;36.00;21.10;;;;;;;2.91;100.00;101455.40;178442;1256;46125;-85
2023/12/15 06:03:59;;;;;;;35.00;22.60;;;;;;;2.93;100.00;101453.05;178892;1257;44123;-87
2023/12/15 06:08:03;;;;;;;34.40;21.50;;;;;;;2.96;100.00;101459.98;180854;1257;44141;-87
2023/12/15 06:12:07;;;;;;;39.70;23.80;;;;;;;2.95;100.00;101466.65;179991;1258;46008;-87
2023/12/15 06:16:21;;;;;;;42.00;24.10;;;;;;;2.98;100.00;101477.09;178382;1257;59397;-86
2023/12/15 06:20:24;;;;;;;35.40;23.30;;;;;;;3.12;100.00;101494.36;178967;1260;46088;-87
2023/12/15 06:24:27;;;;;;;34.70;22.90;;;;;;;3.24;100.00;101501.34;179802;1260;46214;-87
2023/12/15 06:28:31;;;;;;;45.80;24.30;;;;;;;3.34;100.00;101509.80;179682;1258;46134;-86
2023/12/15 06:32:35;;;;;;;24.70;19.20;;;;;;;3.42;100.00;101511.65;178437;1256;45911;-86
2023/12/15 06:36:39;;;;;;;36.40;20.10;;;;;;;3.41;100.00;101514.13;178532;1260;59584;-87
2023/12/15 06:40:42;;;;;;;40.50;20.50;;;;;;;3.38;100.00;101517.74;179165;1256;45859;-84
2023/12/15 06:44:46;;;;;;;33.90;22.20;;;;;;;3.43;100.00;101523.03;178880;1258;46016;-86
2023/12/15 06:48:50;;;;;;;32.90;20.20;;;;;;;3.49;100.00;101525.80;179207;1257;45965;-86
2023/12/15 06:52:53;;;;;;;34.70;21.20;;;;;;;3.54;100.00;101529.88;179658;1256;44705;-87
2023/12/15 06:56:56;;;;;;;33.00;21.30;;;;;;;3.45;100.00;101533.98;178376;1258;59546;-85
2023/12/15 07:01:00;;;;;;;36.80;21.50;;;;;;;3.37;100.00;101539.00;178970;1256;45980;-87
2023/12/15 07:05:03;;;;;;;34.40;23.60;;;;;;;3.39;100.00;101538.23;178870;1258;46018;-87
2023/12/15 07:09:11;;;;;;;32.50;22.50;;;;;;;3.45;100.00;101536.45;179562;1257;45901;-87
2023/12/15 07:13:14;;;;;;;32.80;20.70;;;;;;;3.45;100.00;101545.92;179593;1260;44143;-87
2023/12/15 07:17:17;;;;;;;33.50;21.00;;;;;;;3.43;100.00;101554.05;179139;1256;58530;-87
2023/12/15 07:21:20;;;;;;;32.20;24.60;;;;;;;3.43;100.00;101568.08;179977;1257;44177;-86
2023/12/15 07:25:26;;;;;;;36.60;25.00;;;;;;;3.54;100.00;101573.38;180031;1257;46060;-87
2023/12/15 07:29:30;;;;;;;33.70;22.50;;;;;;;3.72;100.00;101585.27;179387;1257;46095;-86
2023/12/15 07:33:33;;;;;;;30.40;20.40;;;;;;;3.79;100.00;101591.19;179044;1258;46093;-86
2023/12/15 07:37:37;;;;;;;32.50;21.80;;;;;;;3.77;100.00;101594.91;178871;1257;59310;-86
2023/12/15 07:41:41;;;;;;;32.60;22.40;;;;;;;3.76;100.00;101596.20;178922;1257;44860;-87
2023/12/15 07:45:44;;;;;;;38.90;22.90;;;;;;;3.71;100.00;101598.60;178548;1257;45658;-85
2023/12/15 07:49:47;;;;;;;34.50;22.70;;;;;;;3.70;100.00;101602.70;178462;1257;46139;-86
2023/12/15 07:53:51;;;;;;;30.30;21.00;;;;;;;3.69;100.00;101609.90;178836;1256;44216;-85
2023/12/15 07:57:54;;;;;;;32.70;24.80;;;;;;;3.71;100.00;101616.17;179076;1257;59621;-86
2023/12/15 08:01:59;;;;;;;36.10;23.10;;;;;;;3.78;100.00;101620.70;178451;1257;46135;-87
2023/12/15 08:06:03;;;;;;;36.80;25.80;;;;;;;3.81;100.00;101622.67;178326;1257;46110;-86
2023/12/15 08:10:07;;;;;;;31.90;19.70;;;;;;;3.77;100.00;101632.48;178097;1257;46033;-87
2023/12/15 08:14:11;;;;;;;39.20;25.40;;;;;;;3.80;100.00;101632.21;178600;1257;44538;-86
2023/12/15 08:18:14;;;;;;;32.50;20.30;;;;;;;3.80;100.00;101639.58;178496;1257;58519;-87
2023/12/15 08:22:18;;;;;;;34.40;23.70;;;;;;;3.77;100.00;101646.33;178122;1259;46028;-86
2023/12/15 08:26:23;;;;;;;38.60;22.70;;;;;;;3.75;100.00;101652.73;178344;1257;46147;-86
2023/12/15 08:30:27;;;;;;;35.10;23.30;;;;;;;3.76;100.00;101656.02;178508;1257;44135;-87
2023/12/15 08:34:31;;;;;;;33.10;22.00;;;;;;;3.81;100.00;101658.48;178556;1258;46175;-86
2023/12/15 08:38:34;;;;;;;30.80;22.50;;;;;;;3.93;100.00;101660.59;178845;1257;59549;-87
2023/12/15 08:42:38;;;;;;;34.30;21.70;;;;;;;3.99;100.00;101666.18;178510;1257;46439;-87
2023/12/15 08:46:41;;;;;;;39.90;25.60;;;;;;;4.06;100.00;101665.62;178588;1257;45993;-86
2023/12/15 08:50:44;;;;;;;33.60;21.30;;;;;;;4.10;100.00;101676.33;178810;1257;46101;-86
2023/12/15 08:54:48;;;;;;;29.80;21.30;;;;;;;4.17;100.00;101691.77;178642;1257;46041;-87
2023/12/15 08:58:51;;;;;;;30.50;23.00;;;;;;;4.24;100.00;101698.76;177989;1257;208405;-86
2023/12/15 09:02:54;;;;;;;35.50;24.20;;;;;;;4.26;100.00;101694.46;178106;1257;46092;-87
2023/12/15 09:06:58;;;;;;;30.60;21.70;;;;;;;4.32;100.00;101704.30;178173;1257;46153;-85
2023/12/15 09:11:01;;;;;;;44.10;22.90;;;;;;;4.33;100.00;101711.80;177707;1257;46159;-85
2023/12/15 09:15:05;;;;;;;37.00;22.50;;;;;;;4.42;100.00;101710.98;179829;1257;46091;-87
2023/12/15 09:19:08;;;;;;;30.50;22.90;;;;;;;4.49;100.00;101707.06;180953;1256;59409;-85
2023/12/15 09:23:12;;;;;;;35.00;25.20;;;;;;;4.59;100.00;101708.68;179401;1256;46794;-87
2023/12/15 09:27:16;;;;;;;31.30;22.50;;;;;;;4.67;100.00;101708.90;178816;1256;45930;-88
2023/12/15 09:31:19;;;;;;;29.50;22.20;;;;;;;4.71;100.00;101710.02;178124;1257;46098;-88
2023/12/15 09:35:23;;;;;;;32.00;22.10;;;;;;;4.72;100.00;101714.19;178036;1258;46052;-87
2023/12/15 09:39:27;;;;;;;34.50;24.40;;;;;;;4.74;100.00;101720.45;178130;1257;59304;-86
2023/12/15 09:43:31;;;;;;;29.60;19.30;;;;;;;4.76;100.00;101726.73;177675;1260;46109;-87
2023/12/15 09:47:38;;;;;;;32.70;21.40;;;;;;;4.81;100.00;101722.85;177816;1257;46092;-86
2023/12/15 09:51:51;;;;;;;35.40;21.80;;;;;;;4.79;100.00;101724.88;177855;1259;46261;-87
2023/12/15 09:55:55;;;;;;;33.90;20.90;;;;;;;4.89;100.00;101728.21;177911;1256;46001;-87
2023/12/15 09:59:58;;;;;;;29.40;19.90;;;;;;;4.95;100.00;101732.05;178678;1257;59515;-86
2023/12/15 10:04:01;;;;;;;28.60;22.40;;;;;;;4.99;100.00;101738.05;178129;1257;44824;-87
2023/12/15 10:08:05;;;;;;;29.50;20.80;;;;;;;4.99;100.00;101739.65;177990;1257;46119;-87
2023/12/15 10:12:10;;;;;;;33.50;22.70;;;;;;;4.97;100.00;101737.96;178484;1257;46131;-87
2023/12/15 10:16:13;;;;;;;33.70;22.80;;;;;;;4.96;100.00;101736.73;178317;1257;45988;-87
2023/12/15 10:20:17;;;;;;;42.20;24.80;;;;;;;4.96;100.00;101740.45;177914;1258;58238;-86
2023/12/15 10:24:22;;;;;;;39.50;24.30;;;;;;;5.01;100.00;101738.87;178120;1256;46201;-87
2023/12/15 10:28:26;;;;;;;31.90;21.70;;;;;;;5.02;100.00;101734.79;177937;1256;46162;-86
2023/12/15 10:32:29;;;;;;;33.30;22.60;;;;;;;4.97;100.00;101736.54;177935;1258;46121;-87
2023/12/15 10:36:34;;;;;;;32.40;21.60;;;;;;;4.96;100.00;101742.02;178073;1257;45905;-88
2023/12/15 10:40:38;;;;;;;35.10;18.10;;;;;;;4.88;100.00;101750.55;178275;1256;58234;-85
2023/12/15 10:44:41;;;;;;;35.90;22.70;;;;;;;4.72;100.00;101759.36;178125;1257;46016;-87
2023/12/15 10:48:46;;;;;;;39.90;23.10;;;;;;;4.71;100.00;101763.96;178185;1257;46019;-88
2023/12/15 10:52:51;;;;;;;31.20;20.00;;;;;;;4.82;100.00;101762.20;177949;1257;46102;-87
2023/12/15 10:56:54;;;;;;;27.70;18.30;;;;;;;4.79;100.00;101763.33;178164;1257;46115;-87
2023/12/15 11:01:01;;;;;;;25.30;16.10;;;;;;;4.90;100.00;101759.61;178110;1258;58301;-87
2023/12/15 11:05:09;;;;;;;23.50;17.10;;;;;;;4.98;100.00;101757.78;178900;1258;46099;-88
2023/12/15 11:09:26;;;;;;;22.20;15.10;;;;;;;5.03;100.00;101757.79;178298;1257;47371;-87
2023/12/15 11:14:01;;;;;;;28.10;17.60;;;;;;;5.06;100.00;101750.45;177948;1257;46117;-86
2023/12/15 11:18:06;;;;;;;26.60;15.90;;;;;;;5.11;100.00;101748.72;177824;1256;45891;-87
2023/12/15 11:22:11;;;;;;;23.60;16.90;;;;;;;5.17;100.00;101751.84;177748;1257;59384;-88
2023/12/15 11:26:26;;;;;;;22.50;15.90;;;;;;;5.24;100.00;101758.99;178065;1257;46080;-88
2023/12/15 11:30:31;;;;;;;18.50;14.70;;;;;;;5.28;100.00;101752.86;178430;1257;46158;-89
2023/12/15 11:34:43;;;;;;;13.70;12.20;;;;;;;5.28;100.00;101742.29;178165;1257;45997;-88
2023/12/15 11:38:49;;;;;;;13.30;9.10;;;;;;;5.29;100.00;101747.58;177638;1257;45991;-88
2023/12/15 11:42:53;;;;;;;17.80;9.30;;;;;;;5.21;100.00;101757.86;178090;1257;59359;-88
2023/12/15 11:46:56;;;;;;;21.70;15.90;;;;;;;4.97;100.00;101762.03;178450;1256;46086;-88
2023/12/15 11:51:01;;;;;;;19.90;13.90;;;;;;;4.86;100.00;101763.12;178525;1257;46054;-87
2023/12/15 11:55:05;;;;;;;20.20;14.90;;;;;;;4.74;100.00;101765.98;177973;1256;45933;-88
2023/12/15 11:59:08;;;;;;;30.30;22.60;;;;;;;4.77;100.00;101784.69;177723;1260;46176;-87
2023/12/15 12:03:13;;;;;;;16.10;10.10;;;;;;;4.68;100.00;101786.91;177774;1257;58267;-88
2023/12/15 12:07:17;;;;;;;20.40;12.90;;;;;;;4.67;100.00;101781.11;177971;1257;45995;-88
2023/12/15 12:11:20;;;;;;;19.70;14.40;;;;;;;4.60;100.00;101781.20;178108;1258;46012;-87
2023/12/15 12:15:24;;;;;;;23.90;15.10;;;;;;;4.65;100.00;101784.91;177689;1257;46114;-86
2023/12/15 12:19:31;;;;;;;24.00;18.40;;;;;;;4.58;100.00;101783.53;177744;1257;44808;-86
2023/12/15 12:23:35;;;;;;;21.30;14.40;;;;;;;4.56;100.00;101792.06;178075;1260;58616;-88
2023/12/15 12:27:47;;;;;;;20.10;15.50;;;;;;;4.52;100.00;101795.33;177851;1257;46054;-87
2023/12/15 12:31:52;;;;;;;20.10;13.70;;;;;;;4.47;100.00;101800.60;177786;1257;45999;-87
2023/12/15 12:35:55;;;;;;;18.70;12.30;;;;;;;4.39;100.00;101796.61;177459;1257;44092;-87
2023/12/15 12:40:00;;;;;;;23.70;13.80;;;;;;;4.42;100.00;101798.12;177928;1256;46015;-88
2023/12/15 12:44:03;;;;;;;25.90;14.50;;;;;;;4.38;100.00;101804.55;177928;1256;59320;-87
2023/12/15 12:48:07;;;;;;;23.30;15.80;;;;;;;4.34;100.00;101800.27;177847;1256;46010;-86
2023/12/15 12:52:11;;;;;;;32.50;16.70;;;;;;;4.44;100.00;101795.39;179071;1257;45885;-86
2023/12/15 12:56:15;;;;;;;26.00;19.10;;;;;;;4.59;100.00;101789.30;179371;1256;45975;-88
2023/12/15 13:00:18;;;;;;;16.20;11.60;;;;;;;4.63;100.00;101795.17;180738;1256;45384;-85
2023/12/15 13:04:22;;;;;;;20.40;13.00;;;;;;;4.58;100.00;101803.05;179420;1256;57857;-87
2023/12/15 13:08:25;;;;;;;20.40;12.80;;;;;;;4.61;100.00;101808.04;177758;1256;46038;-87
2023/12/15 13:12:29;;;;;;;16.00;13.90;;;;;;;4.64;100.00;101812.52;177917;1256;46125;-87
2023/12/15 13:16:32;;;;;;;17.30;12.70;;;;;;;4.64;100.00;101817.95;178483;1256;46453;-87
2023/12/15 13:20:37;;;;;;;18.30;12.40;;;;;;;4.70;100.00;101820.59;177934;1260;46106;-87
2023/12/15 13:24:43;;;;;;;12.80;10.50;;;;;;;4.78;100.00;101818.41;178019;1259;58688;-87
2023/12/15 13:28:59;;;;;;;12.30;10.60;;;;;;;4.72;100.00;101824.76;178024;1256;46050;-87
2023/12/15 13:33:05;;;;;;;17.00;11.40;;;;;;;4.73;100.00;101822.08;178172;1257;46107;-86
2023/12/15 13:37:09;;;;;;;18.50;11.10;;;;;;;4.57;100.00;101831.36;177817;1257;46121;-87
2023/12/15 13:41:14;;;;;;;12.80;10.50;;;;;;;4.48;100.00;101838.14;179296;1257;44621;-87
2023/12/15 13:45:18;;;;;;;15.30;10.70;;;;;;;4.39;100.00;101844.42;178608;1257;59930;-86
2023/12/15 13:49:21;;;;;;;14.40;10.90;;;;;;;4.30;100.00;101856.96;177878;1258;46200;-86
2023/12/15 13:53:26;;;;;;;21.90;13.50;;;;;;;4.31;100.00;101850.23;178104;1257;46004;-86
2023/12/15 13:57:29;;;;;;;13.70;9.70;;;;;;;4.19;100.00;101853.07;177818;1258;46119;-87
2023/12/15 14:01:33;;;;;;;17.60;10.60;;;;;;;3.98;100.00;101862.81;177926;1258;44204;-87
2023/12/15 14:05:37;;;;;;;15.80;10.30;;;;;;;3.85;100.00;101867.23;178340;1259;59558;-87
2023/12/15 14:09:40;;;;;;;19.40;11.90;;;;;;;3.82;100.00;101871.34;178272;1257;45995;-87
2023/12/15 14:13:44;;;;;;;16.90;13.90;;;;;;;3.86;100.00;101872.11;177659;1257;46234;-86
2023/12/15 14:17:47;;;;;;;15.60;10.90;;;;;;;3.91;100.00;101875.48;177881;1258;46093;-87
2023/12/15 14:21:51;;;;;;;17.10;11.80;;;;;;;3.91;100.00;101883.02;177867;1257;46118;-86
2023/12/15 14:25:54;;;;;;;20.20;12.70;;;;;;;3.89;100.00;101880.80;178168;1257;59883;-86
2023/12/15 14:30:01;;;;;;;18.10;11.40;;;;;;;3.98;100.00;101877.38;177723;1257;46040;-86
2023/12/15 14:34:05;;;;;;;23.40;14.70;;;;;;;4.12;100.00;101878.92;177580;1259;45943;-85
2023/12/15 14:38:09;;;;;;;19.10;13.10;;;;;;;4.19;100.00;101887.69;177570;1258;46336;-87
2023/12/15 14:42:13;;;;;;;22.90;16.60;;;;;;;4.26;100.00;101892.04;178320;1256;46022;-87
2023/12/15 14:46:16;;;;;;;21.00;13.60;;;;;;;4.35;100.00;101891.95;177383;1257;59870;-86
2023/12/15 14:50:20;;;;;;;20.30;14.20;;;;;;;4.37;100.00;101893.81;178021;1258;46122;-87
2023/12/15 14:54:23;;;;;;;22.30;14.10;;;;;;;4.42;100.00;101883.13;179640;1257;46059;-84
2023/12/15 14:58:26;;;;;;;21.70;13.30;;;;;;;4.51;100.00;101875.67;178338;1258;46016;-85
2023/12/15 15:02:29;;;;;;;21.80;12.40;;;;;;;4.59;100.00;101867.84;178850;1257;46118;-84
2023/12/15 15:06:33;;;;;;;19.90;13.60;;;;;;;4.66;100.00;101865.52;178701;1257;58747;-84
2023/12/15 15:10:37;;;;;;;22.10;14.00;;;;;;;4.69;100.00;101866.64;179056;1257;46126;-84
2023/12/15 15:14:40;;;;;;;17.10;12.00;;;;;;;4.73;100.00;101871.64;179719;1257;46108;-84
2023/12/15 15:18:44;;;;;;;18.90;12.30;;;;;;;4.75;100.00;101866.84;180533;1256;46339;-84
2023/12/15 15:22:48;;;;;;;19.50;13.10;;;;;;;4.67;100.00;101862.15;180145;1256;46093;-84
2023/12/15 15:26:51;;;;;;;19.40;12.30;;;;;;;4.67;100.00;101866.02;179930;1256;59356;-83
2023/12/15 15:30:54;;;;;;;15.80;10.30;;;;;;;4.66;100.00;101873.60;179793;1259;46169;-82
2023/12/15 15:35:01;;;;;;;14.80;9.80;;;;;;;4.69;100.00;101870.34;180757;1258;44040;-84
2023/12/15 15:39:09;;;;;;;15.90;10.30;;;;;;;4.65;100.00;101875.75;178955;1256;44097;-87
2023/12/15 15:43:12;;;;;;;14.40;10.20;;;;;;;4.62;100.00;101877.25;179355;1258;46081;-87
2023/12/15 15:47:15;;;;;;;18.20;10.40;;;;;;;4.54;100.00;101874.86;179594;1256;59634;-87
2023/12/15 15:51:29;;;;;;;16.00;11.10;;;;;;;4.45;100.00;101879.70;179914;1258;46111;-84
2023/12/15 15:55:32;;;;;;;21.20;11.50;;;;;;;4.30;100.00;101875.92;180309;1257;45988;-85
2023/12/15 15:59:38;;;;;;;20.60;11.40;;;;;;;4.20;100.00;101879.73;178995;1257;44087;-84
2023/12/15 16:03:41;;;;;;;14.10;10.90;;;;;;;4.15;100.00;101884.45;178860;1257;45993;-85
2023/12/15 16:07:45;;;;;;;16.60;10.00;;;;;;;4.10;100.00;101879.83;180248;1257;59030;-84
2023/12/15 16:11:48;;;;;;;13.20;10.30;;;;;;;4.07;100.00;101884.33;179931;1257;44058;-84
2023/12/15 16:15:51;;;;;;;16.20;10.80;;;;;;;4.08;100.00;101882.17;179479;1257;46018;-84
2023/12/15 16:19:54;;;;;;;16.60;10.70;;;;;;;4.14;100.00;101894.67;179519;1257;46007;-85
2023/12/15 16:23:57;;;;;;;17.20;10.40;;;;;;;4.18;100.00;101895.61;178492;1257;44316;-84
2023/12/15 16:28:01;;;;;;;18.00;12.10;;;;;;;4.24;100.00;101899.98;179062;1257;57583;-84
2023/12/15 16:32:05;;;;;;;15.60;13.10;;;;;;;4.32;100.00;101902.92;179593;1258;44678;-85
2023/12/15 16:36:20;;;;;;;20.20;13.40;;;;;;;4.35;100.00;101908.45;179103;1257;46062;-87
2023/12/15 16:40:28;;;;;;;17.80;11.90;;;;;;;4.37;100.00;101908.74;180539;1256;49996;-84
2023/12/15 16:44:31;;;;;;;19.90;14.20;;;;;;;4.34;100.00;101913.05;180906;1256;45914;-85
2023/12/15 16:48:41;;;;;;;20.10;15.00;;;;;;;4.35;100.00;101919.89;180470;1260;58519;-86
2023/12/15 16:52:44;;;;;;;19.00;12.60;;;;;;;4.39;100.00;101916.60;180699;1256;44114;-88
2023/12/15 16:56:48;;;;;;;25.40;15.50;;;;;;;4.39;100.00;101919.23;180680;1256;44005;-87
2023/12/15 17:00:53;;;;;;;18.50;14.50;;;;;;;4.38;100.00;101916.28;180645;1256;43813;-87
2023/12/15 17:04:58;;;;;;;19.30;13.50;;;;;;;4.40;100.00;101913.55;180388;1256;43874;-87
2023/12/15 17:09:02;;;;;;;21.80;14.20;;;;;;;4.47;100.00;101920.75;179101;1257;59866;-88
2023/12/15 17:13:05;;;;;;;19.80;12.60;;;;;;;4.54;100.00;101920.91;179734;1256;43875;-88
2023/12/15 17:17:11;;;;;;;22.70;13.80;;;;;;;4.56;100.00;101921.18;180368;1256;43969;-89
2023/12/15 17:21:17;;;;;;;26.20;15.90;;;;;;;4.63;100.00;101925.38;180462;1256;45982;-87
2023/12/15 17:25:25;;;;;;;21.40;17.00;;;;;;;4.73;100.00;101927.35;181114;1256;43707;-88
2023/12/15 17:29:28;;;;;;;23.90;14.10;;;;;;;4.85;100.00;101931.21;180777;1258;58269;-87
2023/12/15 17:33:50;;;;;;;18.10;13.40;;;;;;;4.99;100.00;101934.28;179848;1259;46327;-87
2023/12/15 17:37:59;;;;;;;19.50;14.00;;;;;;;5.07;100.00;101935.44;179799;1257;46110;-87
2023/12/15 17:42:14;;;;;;;26.50;17.00;;;;;;;5.13;100.00;101934.88;179772;1258;46006;-86
2023/12/15 17:46:26;;;;;;;24.70;16.30;;;;;;;5.20;100.00;101932.89;179832;1256;45239;-87
2023/12/15 17:50:29;;;;;;;21.30;16.20;;;;;;;5.25;100.00;101939.06;179454;1261;57928;-86
2023/12/15 17:54:34;;;;;;;22.50;16.80;;;;;;;5.33;100.00;101937.76;178544;1256;46024;-84
2023/12/15 17:58:41;;;;;;;22.80;15.00;;;;;;;5.36;100.00;101940.13;179759;1256;45883;-86
2023/12/15 18:02:48;;;;;;;26.90;15.90;;;;;;;5.43;100.00;101938.11;179672;1257;45996;-88
2023/12/15 18:06:52;;;;;;;24.60;16.10;;;;;;;5.49;100.00;101937.04;178622;1259;46119;-87
2023/12/15 18:10:56;;;;;;;18.30;14.40;;;;;;;5.51;100.00;101947.36;178521;1259;58349;-86
2023/12/15 18:15:01;;;;;;;28.90;16.20;;;;;;;5.56;100.00;101939.63;178804;1257;46004;-87
2023/12/15 18:19:05;;;;;;;27.10;17.00;;;;;;;5.59;100.00;101943.75;179044;1260;45949;-87